sensor_id;sensor_type;location;lat;lon;timestamp;temperature;humidity
44843;DHT22;31884;52.538;13.820;2022-11-10T00:01:58;10.60;99.90
44843;DHT22;31884;52.538;13.820;2022-11-10T00:04:23;10.60;99.90
44843;DHT22;31884;52.538;13.820;2022-11-10T00:06:49;10.60;99.90
44843;DHT22;31884;52.538;13.820;2022-11-10T00:09:14;10.50;99.90
44843;DHT22;31884;52.538;13.820;2022-11-10T00:11:40;10.50;99.90
44843;DHT22;31884;52.538;13.820;2022-11-10T00:14:07;10.50;99.90
44843;DHT22;31884;52.538;13.820;2022-11-10T00:16:52;10.50;99.90
44843;DHT22;31884;52.538;13.820;2022-11-10T00:19:30;10.50;99.90
44843;DHT22;31884;52.538;13.820;2022-11-10T00:21:56;10.40;99.90
44843;DHT22;31884;52.538;13.820;2022-11-10T00:24:22;10.40;99.90
44843;DHT22;31884;52.538;13.820;2022-11-10T00:26:48;10.40;99.90
44843;DHT22;31884;52.538;13.820;2022-11-10T00:29:14;10.40;99.90
44843;DHT22;31884;52.538;13.820;2022-11-10T00:31:40;10.40;99.90
44843;DHT22;31884;52.538;13.820;2022-11-10T00:34:07;10.40;99.90
44843;DHT22;31884;52.538;13.820;2022-11-10T00:36:35;10.40;99.90
44843;DHT22;31884;52.538;13.820;2022-11-10T00:39:00;10.40;99.90
44843;DHT22;31884;52.538;13.820;2022-11-10T00:41:26;10.40;99.90
44843;DHT22;31884;52.538;13.820;2022-11-10T00:43:51;10.40;99.90
44843;DHT22;31884;52.538;13.820;2022-11-10T00:46:17;10.30;99.90
44843;DHT22;31884;52.538;13.820;2022-11-10T00:48:42;10.30;99.90
44843;DHT22;31884;52.538;13.820;2022-11-10T00:51:23;10.20;99.90
44843;DHT22;31884;52.538;13.820;2022-11-10T00:53:49;10.20;99.90
44843;DHT22;31884;52.538;13.820;2022-11-10T00:56:14;10.20;99.90
44843;DHT22;31884;52.538;13.820;2022-11-10T00:58:40;10.20;99.90
44843;DHT22;31884;52.538;13.820;2022-11-10T01:01:06;10.10;99.90
44843;DHT22;31884;52.538;13.820;2022-11-10T01:03:32;10.10;99.90
44843;DHT22;31884;52.538;13.820;2022-11-10T01:05:58;10.20;99.90
44843;DHT22;31884;52.538;13.820;2022-11-10T01:08:23;10.20;99.90
44843;DHT22;31884;52.538;13.820;2022-11-10T01:10:49;10.20;99.90
44843;DHT22;31884;52.538;13.820;2022-11-10T01:13:14;10.20;99.90
44843;DHT22;31884;52.538;13.820;2022-11-10T01:15:41;10.30;99.90
44843;DHT22;31884;52.538;13.820;2022-11-10T01:18:07;10.40;99.90
44843;DHT22;31884;52.538;13.820;2022-11-10T01:20:34;10.40;99.90
44843;DHT22;31884;52.538;13.820;2022-11-10T01:22:59;10.40;99.90
44843;DHT22;31884;52.538;13.820;2022-11-10T01:25:25;10.50;99.90
44843;DHT22;31884;52.538;13.820;2022-11-10T01:27:51;10.60;99.90
44843;DHT22;31884;52.538;13.820;2022-11-10T01:30:17;10.60;99.90
44843;DHT22;31884;52.538;13.820;2022-11-10T01:32:42;10.60;99.90
44843;DHT22;31884;52.538;13.820;2022-11-10T01:35:08;10.70;99.90
44843;DHT22;31884;52.538;13.820;2022-11-10T01:37:34;10.70;99.90
44843;DHT22;31884;52.538;13.820;2022-11-10T01:40:00;10.70;99.90
44843;DHT22;31884;52.538;13.820;2022-11-10T01:42:28;10.80;99.90
44843;DHT22;31884;52.538;13.820;2022-11-10T01:47:47;10.70;99.90
44843;DHT22;31884;52.538;13.820;2022-11-10T01:50:13;10.80;99.90
44843;DHT22;31884;52.538;13.820;2022-11-10T01:52:39;10.80;99.90
44843;DHT22;31884;52.538;13.820;2022-11-10T01:55:06;10.80;99.90
44843;DHT22;31884;52.538;13.820;2022-11-10T01:57:32;10.80;99.90
44843;DHT22;31884;52.538;13.820;2022-11-10T01:59:58;10.90;99.90
44843;DHT22;31884;52.538;13.820;2022-11-10T02:02:31;10.90;99.90
44843;DHT22;31884;52.538;13.820;2022-11-10T02:05:00;11.00;99.90
44843;DHT22;31884;52.538;13.820;2022-11-10T02:07:28;11.00;99.90
44843;DHT22;31884;52.538;13.820;2022-11-10T02:09:55;11.00;99.90
44843;DHT22;31884;52.538;13.820;2022-11-10T02:12:21;11.00;99.90
44843;DHT22;31884;52.538;13.820;2022-11-10T02:15:02;11.00;99.90
44843;DHT22;31884;52.538;13.820;2022-11-10T02:17:28;11.00;99.90
44843;DHT22;31884;52.538;13.820;2022-11-10T02:19:58;11.10;99.90
44843;DHT22;31884;52.538;13.820;2022-11-10T02:22:24;11.10;99.90
44843;DHT22;31884;52.538;13.820;2022-11-10T02:24:49;11.10;99.90
44843;DHT22;31884;52.538;13.820;2022-11-10T02:27:15;11.10;99.90
44843;DHT22;31884;52.538;13.820;2022-11-10T02:29:40;11.20;99.90
44843;DHT22;31884;52.538;13.820;2022-11-10T02:32:06;11.10;99.90
44843;DHT22;31884;52.538;13.820;2022-11-10T02:34:31;11.10;99.90
44843;DHT22;31884;52.538;13.820;2022-11-10T02:36:57;11.20;99.90
44843;DHT22;31884;52.538;13.820;2022-11-10T02:39:22;11.20;99.90
44843;DHT22;31884;52.538;13.820;2022-11-10T02:41:47;11.20;99.90
44843;DHT22;31884;52.538;13.820;2022-11-10T02:44:13;11.10;99.90
44843;DHT22;31884;52.538;13.820;2022-11-10T02:46:38;11.10;99.90
44843;DHT22;31884;52.538;13.820;2022-11-10T02:49:04;11.10;99.90
44843;DHT22;31884;52.538;13.820;2022-11-10T02:51:30;11.10;99.90
44843;DHT22;31884;52.538;13.820;2022-11-10T02:53:55;11.10;99.90
44843;DHT22;31884;52.538;13.820;2022-11-10T02:56:21;11.10;99.90
44843;DHT22;31884;52.538;13.820;2022-11-10T02:58:46;11.10;99.90
44843;DHT22;31884;52.538;13.820;2022-11-10T03:01:11;11.00;99.90
44843;DHT22;31884;52.538;13.820;2022-11-10T03:03:37;11.00;99.90
44843;DHT22;31884;52.538;13.820;2022-11-10T03:06:03;11.00;99.90
44843;DHT22;31884;52.538;13.820;2022-11-10T03:08:28;11.00;99.90
44843;DHT22;31884;52.538;13.820;2022-11-10T03:10:55;11.00;99.90
44843;DHT22;31884;52.538;13.820;2022-11-10T03:13:21;11.00;99.90
44843;DHT22;31884;52.538;13.820;2022-11-10T03:15:47;11.00;99.90
44843;DHT22;31884;52.538;13.820;2022-11-10T03:18:13;11.00;99.90
44843;DHT22;31884;52.538;13.820;2022-11-10T03:20:38;11.00;99.90
44843;DHT22;31884;52.538;13.820;2022-11-10T03:23:05;11.00;99.90
44843;DHT22;31884;52.538;13.820;2022-11-10T03:25:31;11.00;99.90
44843;DHT22;31884;52.538;13.820;2022-11-10T03:27:56;11.00;99.90
44843;DHT22;31884;52.538;13.820;2022-11-10T03:30:22;11.00;99.90
44843;DHT22;31884;52.538;13.820;2022-11-10T03:32:48;11.00;99.90
44843;DHT22;31884;52.538;13.820;2022-11-10T03:35:13;11.00;99.90
44843;DHT22;31884;52.538;13.820;2022-11-10T03:37:41;11.00;99.90
44843;DHT22;31884;52.538;13.820;2022-11-10T03:40:07;11.00;99.90
44843;DHT22;31884;52.538;13.820;2022-11-10T03:42:33;11.10;99.90
44843;DHT22;31884;52.538;13.820;2022-11-10T03:44:58;11.00;99.90
44843;DHT22;31884;52.538;13.820;2022-11-10T03:47:24;11.10;99.90
44843;DHT22;31884;52.538;13.820;2022-11-10T03:49:49;11.10;99.90
44843;DHT22;31884;52.538;13.820;2022-11-10T03:52:15;11.10;99.90
44843;DHT22;31884;52.538;13.820;2022-11-10T03:54:41;11.10;99.90
44843;DHT22;31884;52.538;13.820;2022-11-10T03:57:07;11.10;99.90
44843;DHT22;31884;52.538;13.820;2022-11-10T03:59:32;11.10;99.90
44843;DHT22;31884;52.538;13.820;2022-11-10T04:01:58;11.10;99.90
44843;DHT22;31884;52.538;13.820;2022-11-10T04:04:23;11.10;99.90
44843;DHT22;31884;52.538;13.820;2022-11-10T04:07:14;11.00;99.90
44843;DHT22;31884;52.538;13.820;2022-11-10T04:09:58;11.00;99.90
44843;DHT22;31884;52.538;13.820;2022-11-10T04:12:23;11.00;99.90
44843;DHT22;31884;52.538;13.820;2022-11-10T04:15:10;11.00;99.90
44843;DHT22;31884;52.538;13.820;2022-11-10T04:17:54;10.90;99.90
44843;DHT22;31884;52.538;13.820;2022-11-10T04:20:39;10.90;99.90
44843;DHT22;31884;52.538;13.820;2022-11-10T04:23:05;10.90;99.90
44843;DHT22;31884;52.538;13.820;2022-11-10T04:25:49;10.90;99.90
44843;DHT22;31884;52.538;13.820;2022-11-10T04:28:33;10.90;99.90
44843;DHT22;31884;52.538;13.820;2022-11-10T04:30:59;10.80;99.90
44843;DHT22;31884;52.538;13.820;2022-11-10T04:33:24;10.80;99.90
44843;DHT22;31884;52.538;13.820;2022-11-10T04:35:50;10.80;99.90
44843;DHT22;31884;52.538;13.820;2022-11-10T04:38:15;10.70;99.90
44843;DHT22;31884;52.538;13.820;2022-11-10T04:40:41;10.70;99.90
44843;DHT22;31884;52.538;13.820;2022-11-10T04:43:06;10.70;99.90
44843;DHT22;31884;52.538;13.820;2022-11-10T04:45:32;10.70;99.90
44843;DHT22;31884;52.538;13.820;2022-11-10T04:47:58;10.70;99.90
44843;DHT22;31884;52.538;13.820;2022-11-10T04:50:23;10.70;99.90
44843;DHT22;31884;52.538;13.820;2022-11-10T04:52:48;10.70;99.90
44843;DHT22;31884;52.538;13.820;2022-11-10T04:55:14;10.80;99.90
44843;DHT22;31884;52.538;13.820;2022-11-10T04:57:41;10.80;99.90
44843;DHT22;31884;52.538;13.820;2022-11-10T05:00:07;10.80;99.90
44843;DHT22;31884;52.538;13.820;2022-11-10T05:02:33;10.80;99.90
44843;DHT22;31884;52.538;13.820;2022-11-10T05:04:59;10.80;99.90
44843;DHT22;31884;52.538;13.820;2022-11-10T05:07:24;10.90;99.90
44843;DHT22;31884;52.538;13.820;2022-11-10T05:09:50;10.90;99.90
44843;DHT22;31884;52.538;13.820;2022-11-10T05:12:15;10.90;99.90
44843;DHT22;31884;52.538;13.820;2022-11-10T05:14:41;10.90;99.90
44843;DHT22;31884;52.538;13.820;2022-11-10T05:17:06;11.00;99.90
44843;DHT22;31884;52.538;13.820;2022-11-10T05:19:32;10.90;99.90
44843;DHT22;31884;52.538;13.820;2022-11-10T05:21:57;10.90;99.90
44843;DHT22;31884;52.538;13.820;2022-11-10T05:24:23;10.90;99.90
44843;DHT22;31884;52.538;13.820;2022-11-10T05:26:48;10.80;99.90
44843;DHT22;31884;52.538;13.820;2022-11-10T05:29:13;10.70;99.90
44843;DHT22;31884;52.538;13.820;2022-11-10T05:31:39;10.60;99.90
44843;DHT22;31884;52.538;13.820;2022-11-10T05:34:04;10.50;99.90
44843;DHT22;31884;52.538;13.820;2022-11-10T05:36:30;10.50;99.90
44843;DHT22;31884;52.538;13.820;2022-11-10T05:38:55;10.40;99.90
44843;DHT22;31884;52.538;13.820;2022-11-10T05:41:21;10.40;99.90
44843;DHT22;31884;52.538;13.820;2022-11-10T05:43:46;10.30;99.90
44843;DHT22;31884;52.538;13.820;2022-11-10T05:46:13;10.20;99.90
44843;DHT22;31884;52.538;13.820;2022-11-10T05:48:38;10.10;99.90
44843;DHT22;31884;52.538;13.820;2022-11-10T05:51:04;10.10;99.90
44843;DHT22;31884;52.538;13.820;2022-11-10T05:53:30;10.10;99.90
44843;DHT22;31884;52.538;13.820;2022-11-10T05:55:55;10.00;99.90
44843;DHT22;31884;52.538;13.820;2022-11-10T05:58:21;10.00;99.90
44843;DHT22;31884;52.538;13.820;2022-11-10T06:00:46;10.00;99.90
44843;DHT22;31884;52.538;13.820;2022-11-10T06:03:14;10.00;99.90
44843;DHT22;31884;52.538;13.820;2022-11-10T06:05:40;10.10;99.90
44843;DHT22;31884;52.538;13.820;2022-11-10T06:08:06;10.10;99.90
44843;DHT22;31884;52.538;13.820;2022-11-10T06:10:32;10.10;99.90
44843;DHT22;31884;52.538;13.820;2022-11-10T06:12:58;10.10;99.90
44843;DHT22;31884;52.538;13.820;2022-11-10T06:15:24;10.10;99.90
44843;DHT22;31884;52.538;13.820;2022-11-10T06:17:50;10.10;99.90
44843;DHT22;31884;52.538;13.820;2022-11-10T06:20:16;10.10;99.90
44843;DHT22;31884;52.538;13.820;2022-11-10T06:22:43;10.20;99.90
44843;DHT22;31884;52.538;13.820;2022-11-10T06:25:09;10.10;99.90
44843;DHT22;31884;52.538;13.820;2022-11-10T06:27:35;10.10;99.90
44843;DHT22;31884;52.538;13.820;2022-11-10T06:30:01;10.00;99.90
44843;DHT22;31884;52.538;13.820;2022-11-10T06:32:27;10.00;99.90
44843;DHT22;31884;52.538;13.820;2022-11-10T06:34:52;9.90;99.90
44843;DHT22;31884;52.538;13.820;2022-11-10T06:37:18;9.90;99.90
44843;DHT22;31884;52.538;13.820;2022-11-10T06:39:43;9.90;99.90
44843;DHT22;31884;52.538;13.820;2022-11-10T06:42:09;9.80;99.90
44843;DHT22;31884;52.538;13.820;2022-11-10T06:44:34;9.80;99.90
44843;DHT22;31884;52.538;13.820;2022-11-10T06:47:00;9.80;99.90
44843;DHT22;31884;52.538;13.820;2022-11-10T06:49:25;9.80;99.90
44843;DHT22;31884;52.538;13.820;2022-11-10T06:51:51;9.80;99.90
44843;DHT22;31884;52.538;13.820;2022-11-10T06:54:16;9.80;99.90
44843;DHT22;31884;52.538;13.820;2022-11-10T06:56:42;9.80;99.90
44843;DHT22;31884;52.538;13.820;2022-11-10T06:59:07;9.80;99.90
44843;DHT22;31884;52.538;13.820;2022-11-10T07:01:33;9.90;99.90
44843;DHT22;31884;52.538;13.820;2022-11-10T07:03:58;9.90;99.90
44843;DHT22;31884;52.538;13.820;2022-11-10T07:06:24;10.00;99.90
44843;DHT22;31884;52.538;13.820;2022-11-10T07:08:50;10.00;99.90
44843;DHT22;31884;52.538;13.820;2022-11-10T07:11:15;10.10;99.90
44843;DHT22;31884;52.538;13.820;2022-11-10T07:13:41;10.20;99.90
44843;DHT22;31884;52.538;13.820;2022-11-10T07:16:07;10.40;99.90
44843;DHT22;31884;52.538;13.820;2022-11-10T07:18:34;10.40;99.90
44843;DHT22;31884;52.538;13.820;2022-11-10T07:21:05;10.50;99.90
44843;DHT22;31884;52.538;13.820;2022-11-10T07:23:31;10.50;99.90
44843;DHT22;31884;52.538;13.820;2022-11-10T07:26:01;10.50;99.90
44843;DHT22;31884;52.538;13.820;2022-11-10T07:28:27;10.50;99.90
44843;DHT22;31884;52.538;13.820;2022-11-10T07:30:53;10.50;99.90
44843;DHT22;31884;52.538;13.820;2022-11-10T07:33:19;10.50;99.90
44843;DHT22;31884;52.538;13.820;2022-11-10T07:35:55;10.50;99.90
44843;DHT22;31884;52.538;13.820;2022-11-10T07:38:21;10.60;99.90
44843;DHT22;31884;52.538;13.820;2022-11-10T07:40:50;10.70;99.90
44843;DHT22;31884;52.538;13.820;2022-11-10T07:43:18;10.80;99.90
44843;DHT22;31884;52.538;13.820;2022-11-10T07:45:43;10.90;99.90
44843;DHT22;31884;52.538;13.820;2022-11-10T07:48:09;11.00;99.90
44843;DHT22;31884;52.538;13.820;2022-11-10T07:50:34;11.10;99.90
44843;DHT22;31884;52.538;13.820;2022-11-10T07:53:05;11.30;99.90
44843;DHT22;31884;52.538;13.820;2022-11-10T07:55:31;11.40;99.90
44843;DHT22;31884;52.538;13.820;2022-11-10T07:57:57;11.50;99.90
44843;DHT22;31884;52.538;13.820;2022-11-10T08:00:23;11.60;99.90
44843;DHT22;31884;52.538;13.820;2022-11-10T08:02:49;11.60;99.90
44843;DHT22;31884;52.538;13.820;2022-11-10T08:05:15;11.70;99.90
44843;DHT22;31884;52.538;13.820;2022-11-10T08:07:40;11.80;99.90
44843;DHT22;31884;52.538;13.820;2022-11-10T08:10:06;12.00;99.90
44843;DHT22;31884;52.538;13.820;2022-11-10T08:12:33;12.20;99.90
44843;DHT22;31884;52.538;13.820;2022-11-10T08:14:58;12.40;99.90
44843;DHT22;31884;52.538;13.820;2022-11-10T08:17:23;12.70;99.90
44843;DHT22;31884;52.538;13.820;2022-11-10T08:19:49;12.80;99.90
44843;DHT22;31884;52.538;13.820;2022-11-10T08:22:14;12.90;99.90
44843;DHT22;31884;52.538;13.820;2022-11-10T08:24:40;13.00;99.90
44843;DHT22;31884;52.538;13.820;2022-11-10T08:27:05;13.10;99.90
44843;DHT22;31884;52.538;13.820;2022-11-10T08:29:31;13.30;99.90
44843;DHT22;31884;52.538;13.820;2022-11-10T08:31:56;13.30;99.90
44843;DHT22;31884;52.538;13.820;2022-11-10T08:34:22;13.40;99.90
44843;DHT22;31884;52.538;13.820;2022-11-10T08:36:47;13.50;99.90
44843;DHT22;31884;52.538;13.820;2022-11-10T08:39:15;13.60;99.90
44843;DHT22;31884;52.538;13.820;2022-11-10T08:41:41;13.70;99.90
44843;DHT22;31884;52.538;13.820;2022-11-10T08:44:06;13.70;99.90
44843;DHT22;31884;52.538;13.820;2022-11-10T08:46:32;13.80;99.90
44843;DHT22;31884;52.538;13.820;2022-11-10T08:48:57;13.90;99.90
44843;DHT22;31884;52.538;13.820;2022-11-10T08:51:22;14.00;99.90
44843;DHT22;31884;52.538;13.820;2022-11-10T08:53:48;14.10;99.90
44843;DHT22;31884;52.538;13.820;2022-11-10T08:56:13;14.20;99.90
44843;DHT22;31884;52.538;13.820;2022-11-10T08:58:39;14.30;99.90
44843;DHT22;31884;52.538;13.820;2022-11-10T09:01:08;14.40;99.90
44843;DHT22;31884;52.538;13.820;2022-11-10T09:03:34;14.50;99.90
44843;DHT22;31884;52.538;13.820;2022-11-10T09:05:59;14.60;99.90
44843;DHT22;31884;52.538;13.820;2022-11-10T09:08:25;14.70;99.90
44843;DHT22;31884;52.538;13.820;2022-11-10T09:10:51;14.80;99.90
44843;DHT22;31884;52.538;13.820;2022-11-10T09:13:17;14.90;99.90
44843;DHT22;31884;52.538;13.820;2022-11-10T09:15:43;15.10;99.90
44843;DHT22;31884;52.538;13.820;2022-11-10T09:18:11;15.30;99.90
44843;DHT22;31884;52.538;13.820;2022-11-10T09:20:37;15.30;97.90
44843;DHT22;31884;52.538;13.820;2022-11-10T09:23:05;15.40;99.90
44843;DHT22;31884;52.538;13.820;2022-11-10T09:25:31;15.40;99.90
44843;DHT22;31884;52.538;13.820;2022-11-10T09:27:56;15.40;99.80
44843;DHT22;31884;52.538;13.820;2022-11-10T09:30:21;15.30;96.60
44843;DHT22;31884;52.538;13.820;2022-11-10T09:32:55;15.10;95.60
44843;DHT22;31884;52.538;13.820;2022-11-10T09:35:21;15.00;96.70
44843;DHT22;31884;52.538;13.820;2022-11-10T09:37:47;14.70;92.40
44843;DHT22;31884;52.538;13.820;2022-11-10T09:40:27;14.50;96.30
44843;DHT22;31884;52.538;13.820;2022-11-10T09:42:56;14.40;96.60
44843;DHT22;31884;52.538;13.820;2022-11-10T09:45:30;14.40;99.10
44843;DHT22;31884;52.538;13.820;2022-11-10T09:48:12;14.20;99.80
44843;DHT22;31884;52.538;13.820;2022-11-10T09:50:50;14.20;99.90
44843;DHT22;31884;52.538;13.820;2022-11-10T09:53:46;14.20;99.90
44843;DHT22;31884;52.538;13.820;2022-11-10T09:56:13;14.20;99.90
44843;DHT22;31884;52.538;13.820;2022-11-10T09:58:42;14.20;99.90
44843;DHT22;31884;52.538;13.820;2022-11-10T10:01:45;14.30;99.90
44843;DHT22;31884;52.538;13.820;2022-11-10T10:07:12;14.40;99.90
44843;DHT22;31884;52.538;13.820;2022-11-10T10:09:59;14.50;98.30
44843;DHT22;31884;52.538;13.820;2022-11-10T10:15:26;14.60;99.00
44843;DHT22;31884;52.538;13.820;2022-11-10T10:20:56;14.70;98.40
44843;DHT22;31884;52.538;13.820;2022-11-10T10:23:31;14.60;98.80
44843;DHT22;31884;52.538;13.820;2022-11-10T10:25:59;14.60;99.40
44843;DHT22;31884;52.538;13.820;2022-11-10T10:28:30;14.60;99.20
44843;DHT22;31884;52.538;13.820;2022-11-10T10:31:14;14.70;98.80
44843;DHT22;31884;52.538;13.820;2022-11-10T10:33:41;14.70;94.40
44843;DHT22;31884;52.538;13.820;2022-11-10T10:36:32;14.60;97.40
44843;DHT22;31884;52.538;13.820;2022-11-10T10:39:08;14.50;97.70
44843;DHT22;31884;52.538;13.820;2022-11-10T10:41:35;14.50;98.20
44843;DHT22;31884;52.538;13.820;2022-11-10T10:44:08;14.40;98.10
44843;DHT22;31884;52.538;13.820;2022-11-10T10:46:45;14.40;98.00
44843;DHT22;31884;52.538;13.820;2022-11-10T10:49:19;14.30;96.00
44843;DHT22;31884;52.538;13.820;2022-11-10T10:51:46;14.40;95.30
44843;DHT22;31884;52.538;13.820;2022-11-10T10:56:47;14.40;97.20
44843;DHT22;31884;52.538;13.820;2022-11-10T10:59:20;14.40;97.50
44843;DHT22;31884;52.538;13.820;2022-11-10T11:01:46;14.40;95.70
44843;DHT22;31884;52.538;13.820;2022-11-10T11:04:34;14.40;95.90
44843;DHT22;31884;52.538;13.820;2022-11-10T11:07:05;14.40;97.30
44843;DHT22;31884;52.538;13.820;2022-11-10T11:09:43;14.40;97.80
44843;DHT22;31884;52.538;13.820;2022-11-10T11:12:24;14.50;98.00
44843;DHT22;31884;52.538;13.820;2022-11-10T11:14:50;14.50;98.30
44843;DHT22;31884;52.538;13.820;2022-11-10T11:17:21;14.60;97.20
44843;DHT22;31884;52.538;13.820;2022-11-10T11:19:48;14.70;97.90
44843;DHT22;31884;52.538;13.820;2022-11-10T11:22:34;14.80;97.60
44843;DHT22;31884;52.538;13.820;2022-11-10T11:28:14;14.90;96.60
44843;DHT22;31884;52.538;13.820;2022-11-10T11:33:49;15.00;95.70
44843;DHT22;31884;52.538;13.820;2022-11-10T11:36:36;15.10;92.90
44843;DHT22;31884;52.538;13.820;2022-11-10T11:42:39;15.10;92.10
44843;DHT22;31884;52.538;13.820;2022-11-10T11:45:16;15.10;91.40
44843;DHT22;31884;52.538;13.820;2022-11-10T11:50:54;15.00;92.10
44843;DHT22;31884;52.538;13.820;2022-11-10T11:56:12;14.80;94.20
44843;DHT22;31884;52.538;13.820;2022-11-10T11:59:02;14.70;93.20
44843;DHT22;31884;52.538;13.820;2022-11-10T12:01:41;14.70;94.70
44843;DHT22;31884;52.538;13.820;2022-11-10T12:06:49;14.80;95.30
44843;DHT22;31884;52.538;13.820;2022-11-10T12:12:33;14.90;95.20
44843;DHT22;31884;52.538;13.820;2022-11-10T12:15:30;15.00;93.40
44843;DHT22;31884;52.538;13.820;2022-11-10T12:18:11;15.10;91.10
44843;DHT22;31884;52.538;13.820;2022-11-10T12:20:50;15.00;93.10
44843;DHT22;31884;52.538;13.820;2022-11-10T12:26:42;15.10;89.10
44843;DHT22;31884;52.538;13.820;2022-11-10T12:32:00;15.00;91.60
44843;DHT22;31884;52.538;13.820;2022-11-10T12:34:39;15.00;93.00
44843;DHT22;31884;52.538;13.820;2022-11-10T12:37:23;15.00;92.40
44843;DHT22;31884;52.538;13.820;2022-11-10T12:40:00;14.90;91.90
44843;DHT22;31884;52.538;13.820;2022-11-10T12:42:29;14.80;92.50
44843;DHT22;31884;52.538;13.820;2022-11-10T12:45:16;14.80;92.50
44843;DHT22;31884;52.538;13.820;2022-11-10T12:47:45;14.70;93.20
44843;DHT22;31884;52.538;13.820;2022-11-10T12:50:28;14.60;93.30
44843;DHT22;31884;52.538;13.820;2022-11-10T12:53:00;14.70;93.30
44843;DHT22;31884;52.538;13.820;2022-11-10T12:55:39;14.60;93.50
44843;DHT22;31884;52.538;13.820;2022-11-10T12:58:11;14.60;92.30
44843;DHT22;31884;52.538;13.820;2022-11-10T13:00:57;14.60;92.50
44843;DHT22;31884;52.538;13.820;2022-11-10T13:06:04;14.70;93.80
44843;DHT22;31884;52.538;13.820;2022-11-10T13:11:19;14.80;94.30
44843;DHT22;31884;52.538;13.820;2022-11-10T13:13:59;14.90;93.80
44843;DHT22;31884;52.538;13.820;2022-11-10T13:16:44;14.90;90.80
44843;DHT22;31884;52.538;13.820;2022-11-10T13:24:30;14.90;92.40
44843;DHT22;31884;52.538;13.820;2022-11-10T13:26:59;14.80;91.80
44843;DHT22;31884;52.538;13.820;2022-11-10T13:29:31;14.80;92.30
44843;DHT22;31884;52.538;13.820;2022-11-10T13:32:34;14.80;93.00
44843;DHT22;31884;52.538;13.820;2022-11-10T13:37:54;14.70;93.10
44843;DHT22;31884;52.538;13.820;2022-11-10T13:45:34;14.80;93.30
44843;DHT22;31884;52.538;13.820;2022-11-10T13:53:38;14.70;92.90
44843;DHT22;31884;52.538;13.820;2022-11-10T13:58:43;14.60;92.60
44843;DHT22;31884;52.538;13.820;2022-11-10T14:06:15;14.60;91.20
44843;DHT22;31884;52.538;13.820;2022-11-10T14:09:16;14.60;91.30
44843;DHT22;31884;52.538;13.820;2022-11-10T14:11:52;14.60;88.80
44843;DHT22;31884;52.538;13.820;2022-11-10T14:14:52;14.50;90.10
44843;DHT22;31884;52.538;13.820;2022-11-10T14:17:23;14.50;89.50
44843;DHT22;31884;52.538;13.820;2022-11-10T14:19:49;14.50;90.70
44843;DHT22;31884;52.538;13.820;2022-11-10T14:22:32;14.50;88.40
44843;DHT22;31884;52.538;13.820;2022-11-10T14:25:04;14.50;89.00
44843;DHT22;31884;52.538;13.820;2022-11-10T14:27:33;14.50;88.30
44843;DHT22;31884;52.538;13.820;2022-11-10T14:32:29;14.50;89.60
44843;DHT22;31884;52.538;13.820;2022-11-10T14:34:55;14.50;90.60
44843;DHT22;31884;52.538;13.820;2022-11-10T14:37:23;14.50;90.60
44843;DHT22;31884;52.538;13.820;2022-11-10T14:40:12;14.50;91.40
44843;DHT22;31884;52.538;13.820;2022-11-10T14:42:39;14.40;90.00
44843;DHT22;31884;52.538;13.820;2022-11-10T14:45:15;14.30;90.90
44843;DHT22;31884;52.538;13.820;2022-11-10T14:47:41;14.30;91.20
44843;DHT22;31884;52.538;13.820;2022-11-10T14:50:17;14.20;91.60
44843;DHT22;31884;52.538;13.820;2022-11-10T14:52:45;14.20;92.00
44843;DHT22;31884;52.538;13.820;2022-11-10T14:55:15;14.10;92.20
44843;DHT22;31884;52.538;13.820;2022-11-10T14:57:46;14.00;91.60
44843;DHT22;31884;52.538;13.820;2022-11-10T15:00:16;14.00;92.10
44843;DHT22;31884;52.538;13.820;2022-11-10T15:02:42;13.90;92.30
44843;DHT22;31884;52.538;13.820;2022-11-10T15:05:12;13.90;92.40
44843;DHT22;31884;52.538;13.820;2022-11-10T15:07:39;13.90;93.10
44843;DHT22;31884;52.538;13.820;2022-11-10T15:12:42;13.90;93.10
44843;DHT22;31884;52.538;13.820;2022-11-10T15:15:17;13.80;93.10
44843;DHT22;31884;52.538;13.820;2022-11-10T15:17:44;13.80;93.50
44843;DHT22;31884;52.538;13.820;2022-11-10T15:20:32;13.80;93.30
44843;DHT22;31884;52.538;13.820;2022-11-10T15:22:59;13.70;93.80
44843;DHT22;31884;52.538;13.820;2022-11-10T15:25:37;13.70;94.00
44843;DHT22;31884;52.538;13.820;2022-11-10T15:30:37;13.60;94.40
44843;DHT22;31884;52.538;13.820;2022-11-10T15:33:09;13.60;94.70
44843;DHT22;31884;52.538;13.820;2022-11-10T15:35:35;13.50;94.90
44843;DHT22;31884;52.538;13.820;2022-11-10T15:40:50;13.40;95.40
44843;DHT22;31884;52.538;13.820;2022-11-10T15:43:25;13.40;95.60
44843;DHT22;31884;52.538;13.820;2022-11-10T15:46:15;13.30;96.10
44843;DHT22;31884;52.538;13.820;2022-11-10T15:48:48;13.30;96.40
44843;DHT22;31884;52.538;13.820;2022-11-10T15:51:16;13.20;96.90
44843;DHT22;31884;52.538;13.820;2022-11-10T15:53:48;13.20;97.40
44843;DHT22;31884;52.538;13.820;2022-11-10T15:56:16;13.20;97.40
44843;DHT22;31884;52.538;13.820;2022-11-10T15:58:44;13.10;97.60
44843;DHT22;31884;52.538;13.820;2022-11-10T16:01:11;13.10;97.90
44843;DHT22;31884;52.538;13.820;2022-11-10T16:03:38;13.00;98.20
44843;DHT22;31884;52.538;13.820;2022-11-10T16:06:04;13.00;98.20
44843;DHT22;31884;52.538;13.820;2022-11-10T16:08:29;12.90;98.40
44843;DHT22;31884;52.538;13.820;2022-11-10T16:10:56;12.90;98.90
44843;DHT22;31884;52.538;13.820;2022-11-10T16:13:25;12.80;99.00
44843;DHT22;31884;52.538;13.820;2022-11-10T16:15:52;12.80;99.20
44843;DHT22;31884;52.538;13.820;2022-11-10T16:18:22;12.70;99.50
44843;DHT22;31884;52.538;13.820;2022-11-10T16:20:49;12.60;99.90
44843;DHT22;31884;52.538;13.820;2022-11-10T16:23:15;12.50;99.90
44843;DHT22;31884;52.538;13.820;2022-11-10T16:25:41;12.50;99.90
44843;DHT22;31884;52.538;13.820;2022-11-10T16:28:14;12.40;99.90
44843;DHT22;31884;52.538;13.820;2022-11-10T16:30:41;12.30;99.90
44843;DHT22;31884;52.538;13.820;2022-11-10T16:33:13;12.10;99.90
44843;DHT22;31884;52.538;13.820;2022-11-10T16:35:39;12.10;99.90
44843;DHT22;31884;52.538;13.820;2022-11-10T16:38:24;11.90;99.90
44843;DHT22;31884;52.538;13.820;2022-11-10T16:41:01;11.90;99.90
44843;DHT22;31884;52.538;13.820;2022-11-10T16:43:28;11.80;99.90
44843;DHT22;31884;52.538;13.820;2022-11-10T16:45:56;11.70;99.90
44843;DHT22;31884;52.538;13.820;2022-11-10T16:48:25;11.60;99.90
44843;DHT22;31884;52.538;13.820;2022-11-10T16:50:53;11.60;99.90
44843;DHT22;31884;52.538;13.820;2022-11-10T16:53:24;11.50;99.90
44843;DHT22;31884;52.538;13.820;2022-11-10T16:55:51;11.40;99.90